KSCF/SCF METAR and TAF weather

Enter ICAO airport designator
Station Type Date Time Source
KSCF METAR 2019/06/27 07:55 UTC NOAA

KSCF 270755Z AUTO 11007KT 7SM CLR 29/25 A3008 RMK A01


Station Type Date Time Source
KSCF Decoded METAR 2019/06/27 07:55 UTC NOAA

South Marsh 268, LA, United States (KSCF) 29-06-57N 091-52-16W
Jun 27, 2019 - 03:55 AM EDT / 2019.06.27 0755 UTC
Wind: from the ESE (110 degrees) at 8 MPH (7 KT):0
Visibility: 7 mile(s):0
Sky conditions: clear
Temperature: 84 F (29 C)
Dew Point: 77 F (25 C)
Relative Humidity: 79%
Pressure (altimeter): 30.08 in. Hg (1018 hPa)
ob: KSCF 270755Z AUTO 11007KT 7SM CLR 29/25 A3008 RMK A01
cycle: 8

Station Type Date Time Source
KSCF TAF UTC NOAA

Error!

Example: see airport list